Terminal Aerodrome Forecast
Issued by NWS Charleston, WV

Home | Current Version | Previous Version | Text Only | Print | Product List | Glossary On
Versions: 1 2 3 4 5 6 7 8 9 10 11 12 13 14 15 16 17 18 19 20 21 22 23 24 25 26 27
000
FTUS41 KRLX 021500 AAB
TAFBKW
TAF AMD
KBKW 021527Z 0215/0312 31010G19KT P6SM OVC020
     FM021800 33010KT P6SM SCT020 SCT250
     FM030000 VRB02KT P6SM BKN200
     FM030500 VRB02KT P6SM BKN120
     FM030800 13003KT P6SM BKN050=

USA.gov is the U.S. government's official web portal to all federal, state and local government web resources and services.